createdAt,value
2017-09-19T00:00:24.254Z,0.00
2017-09-19T00:01:24.233Z,0.00
2017-09-19T00:02:24.209Z,0.00
2017-09-19T00:03:24.187Z,0.00
2017-09-19T00:04:24.164Z,0.00
2017-09-19T00:05:24.142Z,0.00
2017-09-19T00:06:24.120Z,0.00
2017-09-19T00:07:24.097Z,0.00
2017-09-19T00:08:24.075Z,0.00
2017-09-19T00:09:24.055Z,0.00
2017-09-19T00:10:24.030Z,0.00
2017-09-19T00:11:24.008Z,0.00
2017-09-19T00:12:23.983Z,0.00
2017-09-19T00:13:23.961Z,0.00
2017-09-19T00:14:23.939Z,0.00
2017-09-19T00:15:23.916Z,0.00
2017-09-19T00:16:23.895Z,0.00
2017-09-19T00:17:23.869Z,0.00
2017-09-19T00:18:23.849Z,0.00
2017-09-19T00:19:23.825Z,0.00
2017-09-19T00:20:23.802Z,0.00
2017-09-19T00:21:23.780Z,0.00
2017-09-19T00:22:23.757Z,0.00
2017-09-19T00:23:23.734Z,0.00
2017-09-19T00:24:23.713Z,0.00
2017-09-19T00:25:23.689Z,0.00
2017-09-19T00:26:23.667Z,0.00
2017-09-19T00:27:23.644Z,0.00
2017-09-19T00:28:23.621Z,0.00
2017-09-19T00:29:23.600Z,0.00
2017-09-19T00:30:23.579Z,0.00
2017-09-19T00:31:23.555Z,0.00
2017-09-19T00:32:23.530Z,0.00
2017-09-19T00:33:23.508Z,0.00
2017-09-19T00:34:23.486Z,0.00
2017-09-19T00:35:23.464Z,0.00
2017-09-19T00:36:23.440Z,0.00
2017-09-19T00:37:23.418Z,0.00
2017-09-19T00:38:23.397Z,0.00
2017-09-19T00:39:23.374Z,0.00
2017-09-19T00:40:23.349Z,0.00
2017-09-19T00:41:23.327Z,0.00
2017-09-19T00:42:23.306Z,0.00
2017-09-19T00:43:23.286Z,0.00
2017-09-19T00:44:23.259Z,0.00
2017-09-19T00:45:23.237Z,0.00
2017-09-19T00:46:23.214Z,0.00
2017-09-19T00:47:23.191Z,0.00
2017-09-19T00:48:23.173Z,0.00
2017-09-19T00:49:23.145Z,0.00
2017-09-19T00:50:23.124Z,0.00
2017-09-19T00:51:23.100Z,0.00
2017-09-19T00:52:23.075Z,0.00
2017-09-19T00:53:23.055Z,0.00
2017-09-19T00:54:23.032Z,0.00
2017-09-19T00:55:23.033Z,0.00
2017-09-19T00:56:22.987Z,0.00
2017-09-19T00:57:22.963Z,0.00
2017-09-19T00:58:22.942Z,0.00
2017-09-19T00:59:22.918Z,0.00
2017-09-19T01:00:22.895Z,0.00
2017-09-19T01:01:22.873Z,0.00
2017-09-19T01:02:22.852Z,0.00
2017-09-19T01:03:22.828Z,0.00
2017-09-19T01:04:22.805Z,0.00
2017-09-19T01:05:22.782Z,0.00
2017-09-19T01:06:22.759Z,0.00
2017-09-19T01:07:22.739Z,0.00
2017-09-19T01:08:22.712Z,0.00
2017-09-19T01:09:22.691Z,0.00
2017-09-19T01:10:22.670Z,0.00
2017-09-19T01:11:22.646Z,0.00
2017-09-19T01:12:22.624Z,0.00
2017-09-19T01:13:22.599Z,0.00
2017-09-19T01:14:22.578Z,0.00
2017-09-19T01:15:22.557Z,0.00
2017-09-19T01:16:22.531Z,0.00
2017-09-19T01:17:22.509Z,0.00
2017-09-19T01:18:22.487Z,0.00
2017-09-19T01:19:22.495Z,0.00
2017-09-19T01:20:22.440Z,0.00
2017-09-19T01:21:22.417Z,0.00
2017-09-19T01:22:22.394Z,0.00
2017-09-19T01:23:22.375Z,0.00
2017-09-19T01:24:22.348Z,0.00
2017-09-19T01:25:22.328Z,0.00
2017-09-19T01:26:22.304Z,0.00
2017-09-19T01:27:22.281Z,0.00
2017-09-19T01:28:22.258Z,0.00
2017-09-19T01:29:22.237Z,0.00
2017-09-19T01:30:22.217Z,0.00
2017-09-19T01:31:22.191Z,0.00
2017-09-19T01:32:22.167Z,0.00
2017-09-19T01:33:22.144Z,0.00
2017-09-19T01:34:22.121Z,0.00
2017-09-19T01:35:22.100Z,0.00
2017-09-19T01:36:22.075Z,0.00
2017-09-19T01:37:22.053Z,0.00
2017-09-19T01:38:22.031Z,0.00
2017-09-19T01:39:22.008Z,0.00
2017-09-19T01:40:21.985Z,0.00
2017-09-19T01:41:21.963Z,0.00
2017-09-19T01:42:21.944Z,0.00
2017-09-19T01:43:21.919Z,0.00
2017-09-19T01:44:21.893Z,0.00
2017-09-19T01:45:21.873Z,0.00
2017-09-19T01:46:21.848Z,0.00
2017-09-19T01:47:21.827Z,0.00
2017-09-19T01:48:21.804Z,0.00
2017-09-19T01:49:21.779Z,0.00
2017-09-19T01:50:21.757Z,0.00
2017-09-19T01:51:21.736Z,0.00
2017-09-19T01:52:21.711Z,0.00
2017-09-19T01:53:21.688Z,0.00
2017-09-19T01:54:21.666Z,0.00
2017-09-19T01:55:21.646Z,0.00
2017-09-19T01:56:21.621Z,0.00
2017-09-19T01:57:21.599Z,0.00
2017-09-19T01:58:21.575Z,0.00
2017-09-19T01:59:21.553Z,0.00
2017-09-19T02:00:21.529Z,0.00
2017-09-19T02:01:21.508Z,0.00
2017-09-19T02:02:21.484Z,0.00
2017-09-19T02:03:21.464Z,0.00
2017-09-19T02:04:21.438Z,0.00
2017-09-19T02:05:21.415Z,0.00
2017-09-19T02:06:21.392Z,0.00
2017-09-19T02:07:21.371Z,0.00
2017-09-19T02:08:21.348Z,0.00
2017-09-19T02:09:21.324Z,0.00
2017-09-19T02:10:21.302Z,0.00
2017-09-19T02:11:21.278Z,0.00
2017-09-19T02:12:21.255Z,0.00
2017-09-19T02:13:21.234Z,0.00
2017-09-19T02:14:21.211Z,0.00
2017-09-19T02:15:21.189Z,0.00
2017-09-19T02:16:21.163Z,0.00
2017-09-19T02:17:21.140Z,0.00
2017-09-19T02:18:21.118Z,0.00
2017-09-19T02:19:21.097Z,0.00
2017-09-19T02:20:21.074Z,0.00
2017-09-19T02:21:21.050Z,0.00
2017-09-19T02:22:21.027Z,0.00
2017-09-19T02:23:21.005Z,0.00
2017-09-19T02:24:20.982Z,0.00
2017-09-19T02:25:20.970Z,0.00
2017-09-19T02:26:20.938Z,0.00
2017-09-19T02:27:20.914Z,0.00
2017-09-19T02:28:20.890Z,0.00
2017-09-19T02:29:20.868Z,0.00
2017-09-19T02:30:20.844Z,0.00
2017-09-19T02:31:20.820Z,0.00
2017-09-19T02:32:20.799Z,0.00
2017-09-19T02:33:20.776Z,0.00
2017-09-19T02:34:20.753Z,0.00
2017-09-19T02:35:20.731Z,0.00
2017-09-19T02:36:20.707Z,0.00
2017-09-19T02:37:20.684Z,0.00
2017-09-19T02:38:20.662Z,0.00
2017-09-19T02:39:20.638Z,0.00
2017-09-19T02:40:20.615Z,0.00
2017-09-19T02:41:20.592Z,0.00
2017-09-19T02:42:20.571Z,0.00
2017-09-19T02:43:20.547Z,0.00
2017-09-19T02:44:20.523Z,0.00
2017-09-19T02:45:20.501Z,0.00
2017-09-19T02:46:20.478Z,0.00
2017-09-19T02:47:20.455Z,0.00
2017-09-19T02:48:20.432Z,0.00
2017-09-19T02:49:20.410Z,0.00
2017-09-19T02:50:20.388Z,0.00
2017-09-19T02:51:20.365Z,0.00
2017-09-19T02:52:20.342Z,0.00
2017-09-19T02:53:20.318Z,0.00
2017-09-19T02:54:20.295Z,0.00
2017-09-19T02:55:20.272Z,0.00
2017-09-19T02:56:20.249Z,0.00
2017-09-19T02:57:20.226Z,0.00
2017-09-19T02:58:20.205Z,0.00
2017-09-19T02:59:20.182Z,0.00
2017-09-19T03:00:20.161Z,0.00
2017-09-19T03:01:20.134Z,0.00
2017-09-19T03:02:20.112Z,0.00
2017-09-19T03:03:20.090Z,0.00
2017-09-19T03:04:20.065Z,0.00
2017-09-19T03:05:20.045Z,0.00
2017-09-19T03:06:20.021Z,0.00
2017-09-19T03:07:19.999Z,0.00
2017-09-19T03:08:19.975Z,0.00
2017-09-19T03:09:19.953Z,0.00
2017-09-19T03:10:19.930Z,0.00
2017-09-19T03:11:19.908Z,0.00
2017-09-19T03:12:19.884Z,0.00
2017-09-19T03:13:19.862Z,0.00
2017-09-19T03:14:19.838Z,0.00
2017-09-19T03:15:19.817Z,0.00
2017-09-19T03:16:19.792Z,0.00
2017-09-19T03:17:19.770Z,0.00
2017-09-19T03:18:19.748Z,0.00
2017-09-19T03:19:19.724Z,0.00
2017-09-19T03:20:19.719Z,0.00
2017-09-19T03:21:19.678Z,0.00
2017-09-19T03:22:19.655Z,0.00
2017-09-19T03:23:19.634Z,0.00
2017-09-19T03:24:19.609Z,0.00
2017-09-19T03:25:19.587Z,0.00
2017-09-19T03:26:19.564Z,0.00
2017-09-19T03:27:19.541Z,0.00
2017-09-19T03:28:19.517Z,0.00
2017-09-19T03:29:19.495Z,0.00
2017-09-19T03:30:19.475Z,0.00
2017-09-19T03:31:19.450Z,0.00
2017-09-19T03:32:19.426Z,0.00
2017-09-19T03:33:19.403Z,0.00
2017-09-19T03:34:19.384Z,0.00
2017-09-19T03:35:19.359Z,0.00
2017-09-19T03:36:19.333Z,0.00
2017-09-19T03:37:19.311Z,0.00
2017-09-19T03:38:19.289Z,0.00
2017-09-19T03:39:19.265Z,0.00
2017-09-19T03:40:19.243Z,0.00
2017-09-19T03:41:19.223Z,0.00
2017-09-19T03:42:19.195Z,0.00
2017-09-19T03:43:19.175Z,0.00
2017-09-19T03:44:19.150Z,0.00
2017-09-19T03:45:19.127Z,0.00
2017-09-19T03:46:19.106Z,0.00
2017-09-19T03:47:19.083Z,0.00
2017-09-19T03:48:19.058Z,0.00
2017-09-19T03:49:19.037Z,0.00
2017-09-19T03:50:19.013Z,0.00
2017-09-19T03:51:18.990Z,0.00
2017-09-19T03:52:18.966Z,0.00
2017-09-19T03:53:18.945Z,0.00
2017-09-19T03:54:18.922Z,0.00
2017-09-19T03:55:18.899Z,0.00
2017-09-19T03:56:18.876Z,0.00
2017-09-19T03:57:18.853Z,0.00
2017-09-19T03:58:18.829Z,0.00
2017-09-19T03:59:18.808Z,0.00
2017-09-19T04:00:18.782Z,0.00
2017-09-19T04:01:18.760Z,0.00
2017-09-19T04:02:18.737Z,0.00
2017-09-19T04:03:18.714Z,0.00
2017-09-19T04:04:18.692Z,0.00
2017-09-19T04:05:18.668Z,0.00
2017-09-19T04:06:18.645Z,0.00
2017-09-19T04:07:18.623Z,0.00
2017-09-19T04:08:18.598Z,0.00
2017-09-19T04:09:18.576Z,0.00
2017-09-19T04:10:18.554Z,0.00
2017-09-19T04:11:18.530Z,0.00
2017-09-19T04:12:18.506Z,0.00
2017-09-19T04:13:18.484Z,0.00
2017-09-19T04:14:18.463Z,0.00
2017-09-19T04:15:18.438Z,0.00
2017-09-19T04:16:18.415Z,0.00
2017-09-19T04:17:18.393Z,0.00
2017-09-19T04:18:18.369Z,0.00
2017-09-19T04:19:18.347Z,0.00
2017-09-19T04:20:18.325Z,0.00
2017-09-19T04:21:18.301Z,0.00
2017-09-19T04:22:18.279Z,0.00
2017-09-19T04:23:18.256Z,0.00
2017-09-19T04:24:18.232Z,0.00
2017-09-19T04:25:18.209Z,0.00
2017-09-19T04:26:18.185Z,0.00
2017-09-19T04:27:18.163Z,0.00
2017-09-19T04:28:18.140Z,0.00
2017-09-19T04:29:18.116Z,0.00
2017-09-19T04:30:18.108Z,0.00
2017-09-19T04:31:18.072Z,0.00
2017-09-19T04:32:18.050Z,0.00
2017-09-19T04:33:18.024Z,0.00
2017-09-19T04:34:18.001Z,0.00
2017-09-19T04:35:17.979Z,0.00
2017-09-19T04:36:17.955Z,0.00
2017-09-19T04:37:17.933Z,0.00
2017-09-19T04:38:17.912Z,0.00
2017-09-19T04:39:17.887Z,0.00
2017-09-19T04:40:17.863Z,0.00
2017-09-19T04:41:17.841Z,0.00
2017-09-19T04:42:17.823Z,0.00
2017-09-19T04:43:17.795Z,0.00
2017-09-19T04:44:17.772Z,0.00
2017-09-19T04:45:17.749Z,0.00
2017-09-19T04:46:17.726Z,0.00
2017-09-19T04:47:17.704Z,0.00
2017-09-19T04:48:17.679Z,0.00
2017-09-19T04:49:17.657Z,0.00
2017-09-19T04:50:17.636Z,0.00
2017-09-19T04:51:17.611Z,0.00
2017-09-19T04:52:17.588Z,0.00
2017-09-19T04:53:17.565Z,0.00
2017-09-19T04:54:17.544Z,0.00
2017-09-19T04:55:17.519Z,0.00
2017-09-19T04:56:17.497Z,0.00
2017-09-19T04:57:17.477Z,0.00
2017-09-19T04:58:17.454Z,0.00
2017-09-19T04:59:17.429Z,0.00
2017-09-19T05:00:17.405Z,0.00
2017-09-19T05:01:17.382Z,0.00
2017-09-19T05:02:17.359Z,0.00
2017-09-19T05:03:17.336Z,0.00
2017-09-19T05:04:17.313Z,0.00
2017-09-19T05:05:17.290Z,0.00
2017-09-19T05:06:17.267Z,0.00
2017-09-19T05:07:17.246Z,0.00
2017-09-19T05:08:17.222Z,0.00
2017-09-19T05:09:17.199Z,0.00
2017-09-19T05:10:17.177Z,0.00
2017-09-19T05:11:17.153Z,0.00
2017-09-19T05:12:17.130Z,0.00
2017-09-19T05:13:17.108Z,0.00
2017-09-19T05:14:17.085Z,0.00
2017-09-19T05:15:17.062Z,0.00
2017-09-19T05:16:17.039Z,0.00
2017-09-19T05:17:17.016Z,0.00
2017-09-19T05:18:16.993Z,0.00
2017-09-19T05:19:16.974Z,4.00
2017-09-19T05:20:16.947Z,4.00
2017-09-19T05:21:16.924Z,4.00
2017-09-19T05:22:16.904Z,4.00
2017-09-19T05:23:16.879Z,4.00
2017-09-19T05:24:16.856Z,4.00
2017-09-19T05:25:16.833Z,4.00
2017-09-19T05:26:16.810Z,4.00
2017-09-19T05:27:16.789Z,4.00
2017-09-19T05:28:16.764Z,4.00
2017-09-19T05:29:16.741Z,4.00
2017-09-19T05:30:16.719Z,4.00
2017-09-19T05:31:16.696Z,4.00
2017-09-19T05:32:16.672Z,4.00
2017-09-19T05:33:16.650Z,0.00
2017-09-19T05:34:16.627Z,0.00
2017-09-19T05:35:16.604Z,0.00
2017-09-19T05:36:16.585Z,0.00
2017-09-19T05:37:16.560Z,0.00
2017-09-19T05:38:16.538Z,0.00
2017-09-19T05:39:16.514Z,0.00
2017-09-19T05:40:16.493Z,0.00
2017-09-19T05:41:16.469Z,0.00
2017-09-19T05:42:16.449Z,0.00
2017-09-19T05:43:16.422Z,0.00
2017-09-19T05:44:16.437Z,0.00
2017-09-19T05:45:16.376Z,0.00
2017-09-19T05:46:16.354Z,4.00
2017-09-19T05:47:16.643Z,4.00
2017-09-19T05:48:16.318Z,4.00
2017-09-19T05:49:16.312Z,4.00
2017-09-19T05:50:16.263Z,4.00
2017-09-19T05:51:16.254Z,4.00
2017-09-19T05:52:16.216Z,4.00
2017-09-19T05:53:16.196Z,4.00
2017-09-19T05:54:16.173Z,4.00
2017-09-19T05:55:16.156Z,4.00
2017-09-19T05:56:16.127Z,4.00
2017-09-19T05:57:16.103Z,0.00
2017-09-19T05:58:16.081Z,4.00
2017-09-19T05:59:16.059Z,4.00
2017-09-19T06:00:16.035Z,4.00
2017-09-19T06:01:16.015Z,4.00
2017-09-19T06:02:15.990Z,4.00
2017-09-19T06:03:15.975Z,4.00
2017-09-19T06:04:15.945Z,4.00
2017-09-19T06:05:15.922Z,4.00
2017-09-19T06:06:15.900Z,4.00
2017-09-19T06:07:15.877Z,4.00
2017-09-19T06:08:15.854Z,4.00
2017-09-19T06:09:15.836Z,4.00
2017-09-19T06:10:15.809Z,4.00
2017-09-19T06:11:15.786Z,4.00
2017-09-19T06:12:15.765Z,4.00
2017-09-19T06:13:15.740Z,4.00
2017-09-19T06:14:15.720Z,4.00
2017-09-19T06:15:15.701Z,4.00
2017-09-19T06:16:15.671Z,4.00
2017-09-19T06:17:15.649Z,4.00
2017-09-19T06:18:15.627Z,4.00
2017-09-19T06:19:15.606Z,4.00
2017-09-19T06:20:15.580Z,0.00
2017-09-19T06:21:15.559Z,0.00
2017-09-19T06:22:15.535Z,4.00
2017-09-19T06:23:15.513Z,4.00
2017-09-19T06:24:15.488Z,4.00
2017-09-19T06:25:15.467Z,4.00
2017-09-19T06:26:15.446Z,4.00
2017-09-19T06:27:15.421Z,4.00
2017-09-19T06:28:15.400Z,4.00
2017-09-19T06:29:15.379Z,4.00
2017-09-19T06:30:15.352Z,4.00
2017-09-19T06:31:15.330Z,4.00
2017-09-19T06:32:15.307Z,4.00
2017-09-19T06:33:15.285Z,4.00
2017-09-19T06:34:15.261Z,4.00
2017-09-19T06:35:15.240Z,4.00
2017-09-19T06:36:15.215Z,4.00
2017-09-19T06:37:15.193Z,4.00
2017-09-19T06:38:15.171Z,4.00
2017-09-19T06:39:15.147Z,4.00
2017-09-19T06:40:15.124Z,4.00
2017-09-19T06:41:15.104Z,4.00
2017-09-19T06:42:15.078Z,4.00
2017-09-19T06:43:15.061Z,4.00
2017-09-19T06:44:15.034Z,4.00
2017-09-19T06:45:15.368Z,4.00
2017-09-19T06:46:14.988Z,4.00
2017-09-19T06:47:14.967Z,8.00
2017-09-19T06:48:14.942Z,8.00
2017-09-19T06:49:14.920Z,8.00
2017-09-19T06:50:14.896Z,8.00
2017-09-19T06:51:14.874Z,8.00
2017-09-19T06:52:14.852Z,4.00
2017-09-19T06:53:14.829Z,4.00
2017-09-19T06:54:14.806Z,4.00
2017-09-19T06:55:14.784Z,4.00
2017-09-19T06:56:14.764Z,4.00
2017-09-19T06:57:14.738Z,4.00
2017-09-19T06:58:14.715Z,4.00
2017-09-19T06:59:14.693Z,4.00
2017-09-19T07:00:14.669Z,4.00
2017-09-19T07:01:14.648Z,4.00
2017-09-19T07:02:14.624Z,4.00
2017-09-19T07:03:14.601Z,4.00
2017-09-19T07:04:14.579Z,4.00
2017-09-19T07:05:14.560Z,4.00
2017-09-19T07:06:14.535Z,4.00
2017-09-19T07:07:14.510Z,4.00
2017-09-19T07:08:14.489Z,4.00
2017-09-19T07:09:14.467Z,4.00
2017-09-19T07:10:14.444Z,4.00
2017-09-19T07:11:14.422Z,4.00
2017-09-19T07:12:14.399Z,8.00
2017-09-19T07:13:14.376Z,8.00
2017-09-19T07:14:14.354Z,8.00
2017-09-19T07:15:14.332Z,8.00
2017-09-19T07:16:14.307Z,8.00
2017-09-19T07:17:14.286Z,8.00
2017-09-19T07:18:14.264Z,8.00
2017-09-19T07:19:14.244Z,8.00
2017-09-19T07:20:14.219Z,8.00
2017-09-19T07:21:14.195Z,8.00
2017-09-19T07:22:14.173Z,4.00
2017-09-19T07:23:14.153Z,8.00
2017-09-19T07:24:14.128Z,8.00
2017-09-19T07:25:14.109Z,8.00
2017-09-19T07:26:14.084Z,8.00
2017-09-19T07:27:14.066Z,8.00
2017-09-19T07:28:14.038Z,8.00
2017-09-19T07:29:14.017Z,8.00
2017-09-19T07:30:13.994Z,8.00
2017-09-19T07:31:13.972Z,8.00
2017-09-19T07:32:13.951Z,8.00
2017-09-19T07:33:13.928Z,8.00
2017-09-19T07:34:13.905Z,8.00
2017-09-19T07:35:13.884Z,8.00
2017-09-19T07:36:13.859Z,8.00
2017-09-19T07:37:13.837Z,8.00
2017-09-19T07:38:13.815Z,8.00
2017-09-19T07:39:13.795Z,12.00
2017-09-19T07:40:13.770Z,8.00
2017-09-19T07:41:13.747Z,8.00
2017-09-19T07:42:13.728Z,8.00
2017-09-19T07:43:13.704Z,12.00
2017-09-19T07:44:13.681Z,12.00
2017-09-19T07:45:13.658Z,12.00
2017-09-19T07:46:13.636Z,12.00
2017-09-19T07:47:13.614Z,20.00
2017-09-19T07:48:13.591Z,28.00
2017-09-19T07:49:13.568Z,44.00
2017-09-19T07:50:13.547Z,64.00
2017-09-19T07:51:13.524Z,76.00
2017-09-19T07:52:13.499Z,80.00
2017-09-19T07:53:13.478Z,88.00
2017-09-19T07:54:13.456Z,92.00
2017-09-19T07:55:13.435Z,96.00
2017-09-19T07:56:13.410Z,104.00
2017-09-19T07:57:13.388Z,104.00
2017-09-19T07:58:13.366Z,100.00
2017-09-19T07:59:13.343Z,100.00
2017-09-19T08:00:13.320Z,100.00
2017-09-19T08:01:13.298Z,96.00
2017-09-19T08:02:13.278Z,100.00
2017-09-19T08:03:13.254Z,100.00
2017-09-19T08:04:13.231Z,100.00
2017-09-19T08:05:13.209Z,96.00
2017-09-19T08:06:13.188Z,96.00
2017-09-19T08:07:13.165Z,84.00
2017-09-19T08:08:13.141Z,88.00
2017-09-19T08:09:13.119Z,84.00
2017-09-19T08:10:13.098Z,84.00
2017-09-19T08:11:13.075Z,84.00
2017-09-19T08:12:13.052Z,80.00
2017-09-19T08:13:13.029Z,80.00
2017-09-19T08:14:13.008Z,84.00
2017-09-19T08:15:12.986Z,84.00
2017-09-19T08:16:12.963Z,80.00
2017-09-19T08:17:12.941Z,80.00
2017-09-19T08:18:12.919Z,80.00
2017-09-19T08:19:12.896Z,80.00
2017-09-19T08:20:12.874Z,76.00
2017-09-19T08:21:12.851Z,76.00
2017-09-19T08:22:12.829Z,76.00
2017-09-19T08:23:12.806Z,76.00
2017-09-19T08:24:12.786Z,76.00
2017-09-19T08:25:12.766Z,72.00
2017-09-19T08:26:12.741Z,68.00
2017-09-19T08:27:12.720Z,68.00
2017-09-19T08:28:12.696Z,64.00
2017-09-19T08:29:12.673Z,68.00
2017-09-19T08:30:12.650Z,68.00
2017-09-19T08:31:12.656Z,68.00
2017-09-19T08:32:12.609Z,64.00
2017-09-19T08:33:12.585Z,64.00
2017-09-19T08:34:12.563Z,60.00
2017-09-19T08:35:12.540Z,64.00
2017-09-19T08:36:12.517Z,64.00
2017-09-19T08:37:12.495Z,60.00
2017-09-19T08:38:12.475Z,56.00
2017-09-19T08:39:12.451Z,60.00
2017-09-19T08:40:12.428Z,56.00
2017-09-19T08:41:12.407Z,56.00
2017-09-19T08:42:12.384Z,56.00
2017-09-19T08:43:12.362Z,56.00
2017-09-19T08:44:12.340Z,56.00
2017-09-19T08:45:12.317Z,52.00
2017-09-19T08:46:12.294Z,56.00
2017-09-19T08:47:12.273Z,56.00
2017-09-19T08:48:12.252Z,52.00
2017-09-19T08:49:12.228Z,52.00
2017-09-19T08:50:12.206Z,48.00
2017-09-19T08:51:12.184Z,52.00
2017-09-19T08:52:12.161Z,48.00
2017-09-19T08:53:12.140Z,48.00
2017-09-19T08:54:12.117Z,48.00
2017-09-19T08:55:12.094Z,52.00
2017-09-19T08:56:12.072Z,48.00
2017-09-19T08:57:12.051Z,48.00
2017-09-19T08:58:12.028Z,48.00
2017-09-19T08:59:12.007Z,44.00
2017-09-19T09:00:11.983Z,44.00
2017-09-19T09:01:11.960Z,48.00
2017-09-19T09:02:11.939Z,44.00
2017-09-19T09:03:11.917Z,44.00
2017-09-19T09:04:11.898Z,44.00
2017-09-19T09:05:11.872Z,40.00
2017-09-19T09:06:11.852Z,44.00
2017-09-19T09:07:11.827Z,40.00
2017-09-19T09:08:11.804Z,44.00
2017-09-19T09:09:11.784Z,40.00
2017-09-19T09:10:11.762Z,40.00
2017-09-19T09:11:11.739Z,36.00
2017-09-19T09:12:11.717Z,40.00
2017-09-19T09:13:11.693Z,36.00
2017-09-19T09:14:11.672Z,36.00
2017-09-19T09:15:11.650Z,36.00
2017-09-19T09:16:11.627Z,36.00
2017-09-19T09:17:11.603Z,36.00
2017-09-19T09:18:11.585Z,36.00
2017-09-19T09:19:11.562Z,36.00
2017-09-19T09:20:11.537Z,32.00
2017-09-19T09:21:11.516Z,36.00
2017-09-19T09:22:11.494Z,36.00
2017-09-19T09:23:11.472Z,32.00
2017-09-19T09:24:11.449Z,36.00
2017-09-19T09:25:11.427Z,32.00
2017-09-19T09:26:11.406Z,32.00
2017-09-19T09:27:11.384Z,32.00
2017-09-19T09:28:11.360Z,32.00
2017-09-19T09:29:11.339Z,32.00
2017-09-19T09:30:11.316Z,28.00
2017-09-19T09:31:11.295Z,28.00
2017-09-19T09:32:11.273Z,28.00
2017-09-19T09:33:11.250Z,28.00
2017-09-19T09:34:11.227Z,28.00
2017-09-19T09:35:11.205Z,28.00
2017-09-19T09:36:11.182Z,28.00
2017-09-19T09:37:11.160Z,24.00
2017-09-19T09:38:11.139Z,28.00
2017-09-19T09:39:11.117Z,24.00
2017-09-19T09:40:11.093Z,28.00
2017-09-19T09:41:11.072Z,24.00
2017-09-19T09:42:11.049Z,24.00
2017-09-19T09:43:11.029Z,28.00
2017-09-19T09:44:11.004Z,28.00
2017-09-19T09:45:10.984Z,24.00
2017-09-19T09:46:10.961Z,24.00
2017-09-19T09:47:10.939Z,24.00
2017-09-19T09:48:10.917Z,24.00
2017-09-19T09:49:10.894Z,24.00
2017-09-19T09:50:10.874Z,24.00
2017-09-19T09:51:10.850Z,20.00
2017-09-19T09:52:10.829Z,24.00
2017-09-19T09:53:10.805Z,24.00
2017-09-19T09:54:10.783Z,24.00
2017-09-19T09:55:10.761Z,24.00
2017-09-19T09:56:10.739Z,20.00
2017-09-19T09:57:10.716Z,24.00
2017-09-19T09:58:10.695Z,24.00
2017-09-19T09:59:10.673Z,20.00
2017-09-19T10:00:10.650Z,24.00
2017-09-19T10:01:10.628Z,24.00
2017-09-19T10:02:10.607Z,24.00
2017-09-19T10:03:10.584Z,20.00
2017-09-19T10:04:10.561Z,24.00
2017-09-19T10:05:10.539Z,24.00
2017-09-19T10:06:10.517Z,24.00
2017-09-19T10:07:10.500Z,24.00
2017-09-19T10:08:10.473Z,20.00
2017-09-19T10:09:10.450Z,20.00
2017-09-19T10:10:10.428Z,24.00
2017-09-19T10:11:10.407Z,16.00
2017-09-19T10:12:10.383Z,20.00
2017-09-19T10:13:10.361Z,24.00
2017-09-19T10:14:10.339Z,8.00
2017-09-19T10:15:10.318Z,16.00
2017-09-19T10:16:10.297Z,16.00
2017-09-19T10:17:10.273Z,20.00
2017-09-19T10:18:10.251Z,20.00
2017-09-19T10:19:10.233Z,20.00
2017-09-19T10:20:10.207Z,16.00
2017-09-19T10:21:10.184Z,20.00
2017-09-19T10:22:10.162Z,8.00
2017-09-19T10:23:10.141Z,16.00
2017-09-19T10:24:10.118Z,20.00
2017-09-19T10:25:10.106Z,16.00
2017-09-19T10:26:10.075Z,16.00
2017-09-19T10:27:10.052Z,20.00
2017-09-19T10:28:10.030Z,8.00
2017-09-19T10:29:10.008Z,16.00
2017-09-19T10:30:09.986Z,20.00
2017-09-19T10:31:09.963Z,16.00
2017-09-19T10:32:09.941Z,16.00
2017-09-19T10:33:09.922Z,16.00
2017-09-19T10:34:09.898Z,16.00
2017-09-19T10:35:09.876Z,12.00
2017-09-19T10:36:09.855Z,8.00
2017-09-19T10:37:09.831Z,4.00
2017-09-19T10:38:09.810Z,8.00
2017-09-19T10:39:09.788Z,4.00
2017-09-19T10:40:09.766Z,8.00
2017-09-19T10:41:09.744Z,4.00
2017-09-19T10:42:09.722Z,4.00
2017-09-19T10:43:09.700Z,4.00
2017-09-19T10:44:09.676Z,4.00
2017-09-19T10:45:09.655Z,4.00
2017-09-19T10:46:09.635Z,8.00
2017-09-19T10:47:09.612Z,4.00
2017-09-19T10:48:09.589Z,4.00
2017-09-19T10:49:09.567Z,8.00
2017-09-19T10:50:09.545Z,8.00
2017-09-19T10:51:09.523Z,4.00
2017-09-19T10:52:09.501Z,4.00
2017-09-19T10:53:09.479Z,4.00
2017-09-19T10:54:09.457Z,4.00
2017-09-19T10:55:09.436Z,4.00
2017-09-19T10:56:09.413Z,4.00
2017-09-19T10:57:09.391Z,12.00
2017-09-19T10:58:09.368Z,12.00
2017-09-19T10:59:09.347Z,12.00
2017-09-19T11:00:09.325Z,12.00
2017-09-19T11:01:09.302Z,12.00
2017-09-19T11:02:09.282Z,8.00
2017-09-19T11:03:09.260Z,4.00
2017-09-19T11:04:09.236Z,8.00
2017-09-19T11:05:09.215Z,4.00
2017-09-19T11:06:09.196Z,4.00
2017-09-19T11:07:09.170Z,4.00
2017-09-19T11:08:09.147Z,4.00
2017-09-19T11:09:09.129Z,12.00
2017-09-19T11:10:09.105Z,8.00
2017-09-19T11:11:09.089Z,12.00
2017-09-19T11:12:09.060Z,8.00
2017-09-19T11:13:09.039Z,12.00
2017-09-19T11:14:09.017Z,12.00
2017-09-19T11:15:08.997Z,12.00
2017-09-19T11:16:08.980Z,8.00
2017-09-19T11:17:08.951Z,12.00
2017-09-19T11:18:08.927Z,12.00
2017-09-19T11:19:08.907Z,8.00
2017-09-19T11:20:08.884Z,8.00
2017-09-19T11:21:08.861Z,12.00
2017-09-19T11:22:08.840Z,12.00
2017-09-19T11:23:08.817Z,12.00
2017-09-19T11:24:08.795Z,12.00
2017-09-19T11:25:08.772Z,12.00
2017-09-19T11:26:08.752Z,12.00
2017-09-19T11:27:08.730Z,4.00
2017-09-19T11:28:08.706Z,4.00
2017-09-19T11:29:08.687Z,4.00
2017-09-19T11:30:08.663Z,8.00
2017-09-19T11:31:08.641Z,8.00
2017-09-19T11:32:08.618Z,4.00
2017-09-19T11:33:08.597Z,12.00
2017-09-19T11:34:08.634Z,12.00
2017-09-19T11:35:08.554Z,12.00
2017-09-19T11:36:08.531Z,8.00
2017-09-19T11:37:08.509Z,4.00
2017-09-19T11:38:08.489Z,8.00
2017-09-19T11:39:08.465Z,8.00
2017-09-19T11:40:08.443Z,8.00
2017-09-19T11:41:08.424Z,8.00
2017-09-19T11:42:08.399Z,8.00
2017-09-19T11:43:08.378Z,8.00
2017-09-19T11:44:08.354Z,8.00
2017-09-19T11:45:08.334Z,8.00
2017-09-19T11:46:08.310Z,8.00
2017-09-19T11:47:08.289Z,8.00
2017-09-19T11:48:08.266Z,8.00
2017-09-19T11:49:08.244Z,8.00
2017-09-19T11:50:08.223Z,8.00
2017-09-19T11:51:08.201Z,8.00
2017-09-19T11:52:08.178Z,8.00
2017-09-19T11:53:08.155Z,8.00
2017-09-19T11:54:08.135Z,8.00
2017-09-19T11:55:08.113Z,8.00
2017-09-19T11:56:08.090Z,8.00
2017-09-19T11:57:08.069Z,8.00
2017-09-19T11:58:08.047Z,8.00
2017-09-19T11:59:08.026Z,8.00
2017-09-19T12:00:08.003Z,12.00
2017-09-19T12:01:07.980Z,12.00
2017-09-19T12:02:07.959Z,8.00
2017-09-19T12:03:07.937Z,8.00
2017-09-19T12:04:07.915Z,8.00
2017-09-19T12:05:07.894Z,12.00
2017-09-19T12:06:07.871Z,12.00
2017-09-19T12:07:07.849Z,16.00
2017-09-19T12:08:07.828Z,16.00
2017-09-19T12:09:07.805Z,16.00
2017-09-19T12:10:07.783Z,8.00
2017-09-19T12:11:07.761Z,8.00
2017-09-19T12:12:07.738Z,8.00
2017-09-19T12:13:07.722Z,8.00
2017-09-19T12:14:07.696Z,8.00
2017-09-19T12:15:07.674Z,8.00
2017-09-19T12:16:07.651Z,8.00
2017-09-19T12:17:07.629Z,8.00
2017-09-19T12:18:07.608Z,4.00
2017-09-19T12:19:07.585Z,8.00
2017-09-19T12:20:07.563Z,8.00
2017-09-19T12:21:07.541Z,8.00
2017-09-19T12:22:07.519Z,8.00
2017-09-19T12:23:07.499Z,8.00
2017-09-19T12:24:07.474Z,8.00
2017-09-19T12:25:07.453Z,8.00
2017-09-19T12:26:07.431Z,8.00
2017-09-19T12:27:07.410Z,8.00
2017-09-19T12:28:07.388Z,8.00
2017-09-19T12:29:07.365Z,8.00
2017-09-19T12:30:07.343Z,8.00
2017-09-19T12:31:07.323Z,8.00
2017-09-19T12:32:07.302Z,16.00
2017-09-19T12:33:07.278Z,12.00
2017-09-19T12:34:07.256Z,16.00
2017-09-19T12:35:07.234Z,20.00
2017-09-19T12:36:07.213Z,12.00
2017-09-19T12:37:07.189Z,12.00
2017-09-19T12:38:07.168Z,16.00
2017-09-19T12:39:07.145Z,12.00
2017-09-19T12:40:07.123Z,12.00
2017-09-19T12:41:07.101Z,8.00
2017-09-19T12:42:07.079Z,8.00
2017-09-19T12:43:07.056Z,12.00
2017-09-19T12:44:07.035Z,8.00
2017-09-19T12:45:07.015Z,8.00
2017-09-19T12:46:06.992Z,8.00
2017-09-19T12:47:06.969Z,8.00
2017-09-19T12:48:06.946Z,8.00
2017-09-19T12:49:06.925Z,8.00
2017-09-19T12:50:06.902Z,8.00
2017-09-19T12:51:06.881Z,8.00
2017-09-19T12:52:06.866Z,12.00
2017-09-19T12:53:06.836Z,16.00
2017-09-19T12:54:06.814Z,16.00
2017-09-19T12:55:06.793Z,16.00
2017-09-19T12:56:06.771Z,8.00
2017-09-19T12:57:06.748Z,8.00
2017-09-19T12:58:06.726Z,8.00
2017-09-19T12:59:06.705Z,8.00
2017-09-19T13:00:06.682Z,8.00
2017-09-19T13:01:06.667Z,8.00
2017-09-19T13:02:06.641Z,8.00
2017-09-19T13:03:06.617Z,8.00
2017-09-19T13:04:06.594Z,16.00
2017-09-19T13:05:06.572Z,12.00
2017-09-19T13:06:06.550Z,8.00
2017-09-19T13:07:06.529Z,16.00
2017-09-19T13:08:06.505Z,20.00
2017-09-19T13:09:06.484Z,8.00
2017-09-19T13:10:06.464Z,8.00